Terminal Aerodrome Forecast
Issued by NWS

Home | Current Version | Previous Version | Graphics & Text | Print | Product List | Glossary On
Versions: 1 2 3 4 5 6 7 8 9 10 11 12 13 14 15 16 17 18 19 20 21 22
000
FTUS41 KCLE 011125
TAFFDY
TAF
KFDY 011125Z 0112/0212 36004KT 1/4SM -DZ FG OVC002
     FM011300 36004KT 2SM BR OVC003
     FM011500 33005KT 4SM BR OVC007
     FM011700 36006KT P6SM OVC015
     FM020300 05010KT 4SM -RA BR OVC007
     FM021000 35008KT 2SM BR OVC007=

USA.gov is the U.S. government's official web portal to all federal, state and local government web resources and services.